Time;durP1;ratioP1;P1;durP2;ratioP2;P2;SDS_P1;SDS_P2;PMS_P1;PMS_P2;Temp;Humidity;BMP_temperature;BMP_pressure;BME280_temperature;BME280_humidity;BME280_pressure;Samples;Min_cycle;Max_cycle;Signal;HPM_P1;HPM_P2
2021/10/09 00:00:15;;;;;;;9.57;2.70;;;;;;;;;;5034149;28;20037;-47
2021/10/09 00:02:41;;;;;;;4.63;2.60;;;;;;;;;;5034243;28;20021;-47
2021/10/09 00:05:06;;;;;;;2.53;1.70;;;;;;;;;;5032950;28;20045;-46
2021/10/09 00:07:32;;;;;;;3.72;2.40;;;;;;;;;;5033938;28;20061;-48
2021/10/09 00:10:01;;;;;;;4.85;2.50;;;;;;;;;;5033900;28;20044;-47
2021/10/09 00:12:27;;;;;;;7.63;2.03;;;;;;;;;;5034240;28;20037;-46
2021/10/09 00:14:53;;;;;;;4.60;2.60;;;;;;;;;;5032557;28;20033;-47
2021/10/09 00:17:20;;;;;;;4.90;2.83;;;;;;;;;;5033891;28;20025;-47
2021/10/09 00:19:45;;;;;;;3.65;2.00;;;;;;;;;;5033704;28;20037;-47
2021/10/09 00:22:10;;;;;;;4.47;2.22;;;;;;;;;;5032474;28;20025;-47
2021/10/09 00:24:36;;;;;;;3.03;2.33;;;;;;;;;;5033678;28;20033;-47
2021/10/09 00:27:01;;;;;;;5.50;2.30;;;;;;;;;;5033713;28;20021;-47
2021/10/09 00:29:27;;;;;;;5.15;1.63;;;;;;;;;;5033853;28;20041;-47
2021/10/09 00:31:52;;;;;;;9.60;2.92;;;;;;;;;;5033553;28;20021;-47
2021/10/09 00:34:18;;;;;;;5.20;2.67;;;;;;;;;;5033344;28;20108;-47
2021/10/09 00:36:44;;;;;;;2.58;0.73;;;;;;;;;;5032152;28;20114;-46
2021/10/09 00:39:09;;;;;;;5.30;2.45;;;;;;;;;;5033481;28;20029;-46
2021/10/09 00:41:35;;;;;;;6.30;2.10;;;;;;;;;;5033319;28;20102;-46
2021/10/09 00:44:16;;;;;;;6.63;2.30;;;;;;;;;;5033277;28;20021;-47
2021/10/09 00:46:42;;;;;;;10.98;2.90;;;;;;;;;;5033263;28;20391;-47
2021/10/09 00:49:15;;;;;;;3.22;1.92;;;;;;;;;;5033331;28;20028;-47
2021/10/09 00:51:45;;;;;;;7.40;2.40;;;;;;;;;;5031835;28;20490;-46
2021/10/09 00:54:10;;;;;;;6.93;2.63;;;;;;;;;;5033212;28;20029;-47
2021/10/09 00:56:36;;;;;;;4.55;2.50;;;;;;;;;;5031737;28;20028;-47
2021/10/09 00:59:02;;;;;;;4.15;1.95;;;;;;;;;;5031801;28;20025;-46
2021/10/09 01:01:28;;;;;;;3.20;2.17;;;;;;;;;;5033375;28;20116;-46
2021/10/09 01:03:54;;;;;;;9.80;2.63;;;;;;;;;;5031570;28;20460;-47
2021/10/09 01:06:19;;;;;;;8.75;3.65;;;;;;;;;;5032896;28;20037;-46
2021/10/09 01:08:45;;;;;;;4.32;2.22;;;;;;;;;;5032803;28;20021;-46
2021/10/09 01:11:10;;;;;;;5.43;2.22;;;;;;;;;;5032816;28;20040;-46
2021/10/09 01:13:36;;;;;;;6.18;2.00;;;;;;;;;;5031484;28;20021;-47
2021/10/09 01:16:02;;;;;;;4.25;3.13;;;;;;;;;;5031242;28;20033;-46
2021/10/09 01:18:28;;;;;;;4.60;2.60;;;;;;;;;;5031510;28;20400;-47
2021/10/09 01:20:58;;;;;;;3.65;2.20;;;;;;;;;;5031259;28;20033;-46
2021/10/09 01:23:28;;;;;;;7.05;2.70;;;;;;;;;;5031418;28;20038;-47
2021/10/09 01:25:56;;;;;;;4.95;3.10;;;;;;;;;;5031154;28;20048;-47
2021/10/09 01:28:22;;;;;;;4.40;2.22;;;;;;;;;;5031149;28;20022;-47
2021/10/09 01:30:47;;;;;;;2.75;1.42;;;;;;;;;;5031230;28;20496;-47
2021/10/09 01:33:13;;;;;;;2.50;1.60;;;;;;;;;;5032160;28;20476;-47
2021/10/09 01:35:48;;;;;;;10.07;1.90;;;;;;;;;;5031091;28;20049;-47
2021/10/09 01:38:16;;;;;;;5.40;2.28;;;;;;;;;;5030982;28;20026;-47
2021/10/09 01:40:41;;;;;;;3.15;1.90;;;;;;;;;;5030948;28;20129;-46
2021/10/09 01:43:08;;;;;;;2.65;1.38;;;;;;;;;;5031040;28;20073;-47
2021/10/09 01:45:33;;;;;;;3.92;2.10;;;;;;;;;;5030676;28;20383;-47
2021/10/09 01:47:59;;;;;;;2.72;1.42;;;;;;;;;;5030813;28;20029;-47
2021/10/09 01:50:24;;;;;;;2.28;1.65;;;;;;;;;;5030782;28;20021;-46
2021/10/09 01:52:50;;;;;;;5.22;2.60;;;;;;;;;;5030732;28;20375;-46
2021/10/09 01:55:15;;;;;;;3.17;2.13;;;;;;;;;;5030712;28;20071;-47
2021/10/09 01:57:42;;;;;;;2.72;1.58;;;;;;;;;;5030619;28;20536;-46
2021/10/09 02:00:08;;;;;;;3.38;1.33;;;;;;;;;;5032259;28;20029;-47
2021/10/09 02:02:49;;;;;;;7.32;2.28;;;;;;;;;;5030438;28;20025;-47
2021/10/09 02:05:15;;;;;;;5.53;3.08;;;;;;;;;;5030557;28;20061;-46
2021/10/09 02:07:40;;;;;;;4.05;2.70;;;;;;;;;;5030426;28;20553;-47
2021/10/09 02:10:06;;;;;;;7.30;2.38;;;;;;;;;;5030401;28;20044;-46
2021/10/09 02:12:34;;;;;;;2.55;1.83;;;;;;;;;;5030280;28;20044;-47
2021/10/09 02:25:56;;;;;;;6.80;2.17;;;;;;;;;;5031552;28;20116;-47
2021/10/09 02:28:22;;;;;;;4.22;2.22;;;;;;;;;;5030928;28;20097;-46
2021/10/09 02:30:48;;;;;;;4.60;2.13;;;;;;;;;;5030234;28;20037;-47
2021/10/09 02:33:15;;;;;;;7.40;2.55;;;;;;;;;;5029981;28;20056;-47
2021/10/09 02:35:41;;;;;;;3.58;2.50;;;;;;;;;;5030237;28;20057;-46
2021/10/09 02:38:07;;;;;;;5.68;2.17;;;;;;;;;;5031403;28;20040;-46
2021/10/09 02:40:36;;;;;;;7.13;2.28;;;;;;;;;;5029981;28;20032;-47
2021/10/09 02:43:02;;;;;;;5.22;2.03;;;;;;;;;;5031433;28;20017;-47
2021/10/09 02:45:28;;;;;;;4.72;2.97;;;;;;;;;;5029899;28;20510;-47
2021/10/09 02:47:58;;;;;;;3.75;2.08;;;;;;;;;;5030104;28;20361;-47
2021/10/09 02:50:25;;;;;;;2.85;1.90;;;;;;;;;;5030100;28;20064;-47
2021/10/09 02:52:51;;;;;;;6.30;2.70;;;;;;;;;;5029878;28;20021;-47
2021/10/09 02:55:20;;;;;;;3.08;2.03;;;;;;;;;;5030041;28;20087;-47
2021/10/09 02:57:46;;;;;;;2.08;1.63;;;;;;;;;;5029820;28;20033;-47
2021/10/09 03:00:12;;;;;;;5.97;1.70;;;;;;;;;;5029812;28;20601;-45
2021/10/09 03:02:39;;;;;;;4.63;2.20;;;;;;;;;;5029815;28;20025;-44
2021/10/09 03:05:05;;;;;;;2.88;2.17;;;;;;;;;;5029856;28;20045;-45
2021/10/09 03:07:31;;;;;;;6.63;2.08;;;;;;;;;;5029862;28;20026;-45
2021/10/09 03:09:56;;;;;;;5.30;2.50;;;;;;;;;;5029729;28;20188;-44
2021/10/09 03:12:22;;;;;;;2.85;2.30;;;;;;;;;;5031141;28;20018;-44
2021/10/09 03:14:48;;;;;;;2.60;1.05;;;;;;;;;;5031315;28;20120;-44
2021/10/09 03:17:13;;;;;;;6.28;2.15;;;;;;;;;;5031090;28;20096;-44
2021/10/09 03:19:39;;;;;;;4.90;2.05;;;;;;;;;;5029601;28;20475;-44
2021/10/09 03:22:06;;;;;;;4.53;2.22;;;;;;;;;;5029729;28;20032;-44
2021/10/09 03:24:32;;;;;;;5.22;2.15;;;;;;;;;;5029628;28;20033;-45
2021/10/09 03:26:59;;;;;;;6.28;2.58;;;;;;;;;;5030019;28;20017;-45
2021/10/09 03:29:24;;;;;;;4.20;2.00;;;;;;;;;;5029805;28;20041;-44
2021/10/09 03:31:49;;;;;;;4.97;2.55;;;;;;;;;;5029582;28;20061;-44
2021/10/09 03:34:15;;;;;;;5.90;2.20;;;;;;;;;;5029371;28;20053;-44
2021/10/09 03:36:44;;;;;;;3.42;2.17;;;;;;;;;;5029569;28;20427;-45
2021/10/09 03:39:14;;;;;;;6.43;2.42;;;;;;;;;;5031990;28;20032;-44
2021/10/09 03:41:43;;;;;;;4.43;2.22;;;;;;;;;;5033186;28;20021;-44
2021/10/09 03:44:08;;;;;;;3.88;2.33;;;;;;;;;;5033172;28;20391;-44
2021/10/09 03:46:55;;;;;;;2.80;1.13;;;;;;;;;;5033086;28;20033;-44
2021/10/09 03:54:42;;;;;;;2.63;1.90;;;;;;;;;;5034541;28;20034;-47
2021/10/09 03:57:08;;;;;;;3.38;1.75;;;;;;;;;;5032951;28;20048;-46
2021/10/09 03:59:34;;;;;;;2.22;1.70;;;;;;;;;;5032826;28;20086;-47
2021/10/09 04:02:00;;;;;;;4.10;2.47;;;;;;;;;;5034253;28;20414;-47
2021/10/09 04:04:28;;;;;;;3.25;2.25;;;;;;;;;;5032760;28;20029;-47
2021/10/09 04:06:53;;;;;;;4.03;1.95;;;;;;;;;;5033976;28;20562;-47
2021/10/09 04:09:19;;;;;;;3.38;2.20;;;;;;;;;;5032748;28;20033;-47
2021/10/09 04:11:44;;;;;;;6.22;1.80;;;;;;;;;;5032610;28;20392;-47
2021/10/09 04:14:10;;;;;;;3.45;2.17;;;;;;;;;;5032669;28;20021;-47
2021/10/09 04:16:36;;;;;;;4.35;1.73;;;;;;;;;;5016136;28;20065;-47
2021/10/09 04:19:01;;;;;;;14.23;2.95;;;;;;;;;;5033786;28;20018;-47
2021/10/09 04:21:29;;;;;;;3.95;2.20;;;;;;;;;;5033966;28;20024;-47
2021/10/09 04:23:54;;;;;;;5.70;2.33;;;;;;;;;;5033690;28;20108;-47
2021/10/09 04:26:22;;;;;;;3.67;2.35;;;;;;;;;;5032366;28;20092;-48
2021/10/09 04:28:48;;;;;;;5.68;2.83;;;;;;;;;;5032338;28;20041;-47
2021/10/09 04:31:13;;;;;;;3.22;1.90;;;;;;;;;;5032289;28;20021;-47
2021/10/09 04:33:40;;;;;;;7.15;2.13;;;;;;;;;;5032211;28;20513;-47
2021/10/09 04:36:11;;;;;;;4.43;2.72;;;;;;;;;;5032320;28;20025;-47
2021/10/09 04:38:38;;;;;;;0.38;0.38;;;;;;;;;;5032074;28;20033;-47
2021/10/09 04:41:03;;;;;;;4.90;2.67;;;;;;;;;;5032229;28;20615;-47
2021/10/09 04:43:29;;;;;;;5.15;1.77;;;;;;;;;;5032100;28;20033;-47
2021/10/09 04:45:55;;;;;;;5.45;2.50;;;;;;;;;;5031924;28;20606;-46
2021/10/09 04:48:21;;;;;;;3.35;2.33;;;;;;;;;;5031973;28;20550;-47
2021/10/09 04:50:46;;;;;;;5.18;2.25;;;;;;;;;;5014899;28;20033;-47
2021/10/09 04:53:12;;;;;;;4.53;2.17;;;;;;;;;;5031891;28;20518;-47
2021/10/09 04:55:37;;;;;;;8.82;2.85;;;;;;;;;;5033066;28;20129;-47
2021/10/09 04:58:03;;;;;;;5.50;2.53;;;;;;;;;;5031891;28;20052;-47
2021/10/09 05:00:29;;;;;;;3.33;1.88;;;;;;;;;;5031774;28;20021;-46
2021/10/09 05:02:54;;;;;;;1.55;1.40;;;;;;;;;;5031728;28;20065;-47
2021/10/09 05:05:20;;;;;;;9.35;2.88;;;;;;;;;;5031701;28;20468;-47
2021/10/09 05:07:46;;;;;;;5.03;1.83;;;;;;;;;;5031484;28;20051;-47
2021/10/09 05:10:12;;;;;;;5.82;1.38;;;;;;;;;;5031626;28;20030;-47
2021/10/09 05:12:37;;;;;;;3.00;2.10;;;;;;;;;;5031777;28;20033;-47
2021/10/09 05:15:03;;;;;;;8.50;2.30;;;;;;;;;;5032794;28;20583;-47
2021/10/09 05:17:29;;;;;;;8.63;2.72;;;;;;;;;;5031539;28;20037;-47
2021/10/09 05:19:55;;;;;;;4.15;2.42;;;;;;;;;;5032648;28;20017;-47
2021/10/09 05:22:20;;;;;;;3.80;1.58;;;;;;;;;;5031356;28;20029;-46
2021/10/09 05:24:49;;;;;;;3.33;2.47;;;;;;;;;;5031252;28;20112;-47
2021/10/09 05:27:15;;;;;;;2.78;2.20;;;;;;;;;;5032555;28;20025;-46
2021/10/09 05:29:41;;;;;;;3.63;2.08;;;;;;;;;;5031076;28;20022;-47
2021/10/09 05:32:08;;;;;;;5.65;2.65;;;;;;;;;;5031220;28;20669;-47
2021/10/09 05:34:34;;;;;;;7.72;2.28;;;;;;;;;;5031028;28;20049;-47
2021/10/09 05:36:59;;;;;;;4.18;1.75;;;;;;;;;;5031038;28;20052;-47
2021/10/09 05:39:25;;;;;;;5.65;2.08;;;;;;;;;;5031057;28;20029;-47
2021/10/09 05:41:53;;;;;;;4.18;2.50;;;;;;;;;;5014916;28;20033;-47
2021/10/09 05:44:19;;;;;;;5.13;2.60;;;;;;;;;;5032167;28;20044;-47
2021/10/09 05:46:45;;;;;;;4.38;2.20;;;;;;;;;;5030903;28;20029;-47
2021/10/09 05:49:13;;;;;;;3.25;2.00;;;;;;;;;;5030839;28;20021;-47
2021/10/09 05:54:47;;;;;;;3.15;2.05;;;;;;;;;;5030883;28;20040;-46
2021/10/09 05:57:24;;;;;;;3.72;1.92;;;;;;;;;;5030730;28;20029;-47
2021/10/09 06:44:11;;;;;;;6.38;1.85;;;;;;;;;;5030026;28;20026;-47
2021/10/09 06:47:00;;;;;;;3.10;1.83;;;;;;;;;;5029966;28;20042;-47
2021/10/09 07:00:22;;;;;;;4.53;2.38;;;;;;;;;;5029940;28;20026;-47
2021/10/09 07:02:50;;;;;;;2.70;2.08;;;;;;;;;;5029797;28;20387;-47
2021/10/09 07:05:17;;;;;;;6.40;2.35;;;;;;;;;;5029895;28;20037;-47
2021/10/09 07:08:09;;;;;;;3.63;2.47;;;;;;;;;;5029845;28;20026;-46
2021/10/09 07:10:46;;;;;;;3.92;1.88;;;;;;;;;;5029803;28;20108;-48
2021/10/09 07:13:12;;;;;;;4.85;2.28;;;;;;;;;;5030724;28;20025;-47
2021/10/09 07:15:38;;;;;;;5.10;1.73;;;;;;;;;;5033721;28;20025;-47
2021/10/09 07:18:04;;;;;;;3.85;2.22;;;;;;;;;;5033680;28;20529;-47
2021/10/09 07:20:31;;;;;;;8.07;1.90;;;;;;;;;;5033944;28;20048;-47
2021/10/09 07:22:56;;;;;;;3.33;1.73;;;;;;;;;;5033517;28;20472;-47
2021/10/09 07:25:22;;;;;;;2.97;1.50;;;;;;;;;;5033515;28;20037;-47
2021/10/09 07:27:49;;;;;;;2.95;1.92;;;;;;;;;;5034731;28;20099;-47
2021/10/09 07:30:16;;;;;;;14.57;2.78;;;;;;;;;;5033425;28;20018;-47
2021/10/09 07:32:44;;;;;;;2.45;1.98;;;;;;;;;;5034773;28;20495;-50
2021/10/09 07:35:10;;;;;;;3.55;1.83;;;;;;;;;;5034590;28;20557;-47
2021/10/09 07:37:35;;;;;;;6.75;2.10;;;;;;;;;;5034647;28;20044;-47
2021/10/09 07:40:01;;;;;;;2.85;2.30;;;;;;;;;;5034611;28;20018;-47
2021/10/09 07:42:27;;;;;;;3.78;2.22;;;;;;;;;;5033263;28;20026;-47
2021/10/09 07:44:52;;;;;;;4.20;2.72;;;;;;;;;;5034577;28;20053;-46
2021/10/09 07:47:18;;;;;;;4.05;2.20;;;;;;;;;;5034523;28;20125;-47
2021/10/09 07:49:44;;;;;;;4.03;2.40;;;;;;;;;;5034400;28;20021;-47
2021/10/09 07:52:10;;;;;;;4.95;2.90;;;;;;;;;;5034417;28;20034;-47
2021/10/09 07:54:35;;;;;;;10.60;2.42;;;;;;;;;;5034302;28;20013;-47
2021/10/09 07:57:01;;;;;;;4.35;2.58;;;;;;;;;;5034253;28;20041;-47
2021/10/09 07:59:26;;;;;;;6.43;1.67;;;;;;;;;;5032933;28;20080;-47
2021/10/09 08:01:52;;;;;;;3.67;2.38;;;;;;;;;;5034133;28;20112;-47
2021/10/09 08:04:17;;;;;;;3.75;1.92;;;;;;;;;;5034104;28;20045;-47
2021/10/09 08:06:43;;;;;;;4.53;2.03;;;;;;;;;;5034063;28;20037;-47
2021/10/09 08:09:09;;;;;;;2.05;1.13;;;;;;;;;;5034289;28;20044;-47
2021/10/09 08:11:34;;;;;;;3.55;1.70;;;;;;;;;;5034189;28;20043;-47
2021/10/09 08:14:00;;;;;;;8.30;2.22;;;;;;;;;;5033899;28;20499;-47
2021/10/09 08:16:25;;;;;;;2.60;1.67;;;;;;;;;;5034087;28;20026;-49
2021/10/09 08:18:50;;;;;;;3.47;1.80;;;;;;;;;;5033851;28;20025;-47
2021/10/09 08:21:21;;;;;;;3.15;1.80;;;;;;;;;;5034171;28;20033;-47
2021/10/09 08:23:56;;;;;;;6.43;2.17;;;;;;;;;;5033749;28;20025;-47
2021/10/09 08:40:02;;;;;;;4.43;1.45;;;;;;;;;;5033563;28;20021;-47
2021/10/09 08:42:28;;;;;;;2.58;1.52;;;;;;;;;;5033315;28;20025;-46
2021/10/09 08:44:53;;;;;;;1.73;1.17;;;;;;;;;;5032121;28;20049;-46
2021/10/09 08:47:18;;;;;;;7.00;2.05;;;;;;;;;;5033394;28;20049;-47
2021/10/09 08:49:44;;;;;;;2.33;1.55;;;;;;;;;;5033163;28;20033;-47
2021/10/09 08:52:09;;;;;;;4.07;1.80;;;;;;;;;;5033284;28;20110;-47
2021/10/09 08:54:36;;;;;;;2.00;1.50;;;;;;;;;;5033442;28;20021;-46
2021/10/09 08:57:08;;;;;;;3.45;2.03;;;;;;;;;;5033168;28;20018;-47
2021/10/09 08:59:44;;;;;;;4.90;2.03;;;;;;;;;;5033393;28;20037;-46
2021/10/09 09:07:48;;;;;;;6.93;1.80;;;;;;;;;;5033540;28;20073;-47
2021/10/09 09:37:41;;;;;;;3.85;1.85;;;;;;;;;;5032246;28;20041;-47
2021/10/09 09:40:08;;;;;;;2.10;1.40;;;;;;;;;;5032725;28;20394;-47
2021/10/09 09:42:41;;;;;;;6.03;2.10;;;;;;;;;;5032269;28;20404;-47
2021/10/09 09:45:10;;;;;;;2.78;2.15;;;;;;;;;;5032108;28;20037;-47
2021/10/09 09:47:37;;;;;;;2.40;1.15;;;;;;;;;;5030922;28;20021;-47
2021/10/09 09:50:03;;;;;;;4.20;1.42;;;;;;;;;;5032480;28;20037;-47
2021/10/09 09:52:29;;;;;;;3.80;1.00;;;;;;;;;;5032349;28;20029;-47
2021/10/09 09:54:55;;;;;;;2.53;1.70;;;;;;;;;;5032354;28;20387;-47
2021/10/09 09:57:20;;;;;;;3.70;1.75;;;;;;;;;;5032105;28;20560;-47
2021/10/09 09:59:47;;;;;;;2.50;1.42;;;;;;;;;;5031901;28;20472;-48
2021/10/09 10:02:15;;;;;;;4.82;2.35;;;;;;;;;;5032098;28;20018;-47
2021/10/09 10:04:41;;;;;;;10.95;1.58;;;;;;;;;;5031717;28;20039;-47
2021/10/09 10:07:07;;;;;;;3.08;1.77;;;;;;;;;;5030745;28;20018;-48
2021/10/09 10:09:32;;;;;;;4.32;1.75;;;;;;;;;;5032147;28;20034;-47
2021/10/09 10:11:59;;;;;;;3.22;1.73;;;;;;;;;;5031720;28;20029;-48
2021/10/09 10:14:26;;;;;;;4.78;1.73;;;;;;;;;;5031757;28;20460;-47
2021/10/09 10:16:53;;;;;;;2.67;1.60;;;;;;;;;;5030425;28;20025;-47
2021/10/09 10:19:18;;;;;;;4.78;1.60;;;;;;;;;;5031742;28;20033;-47
2021/10/09 10:21:45;;;;;;;2.03;1.30;;;;;;;;;;5031544;28;20025;-47
2021/10/09 10:24:11;;;;;;;1.58;1.20;;;;;;;;;;5031544;28;20030;-47
2021/10/09 10:26:37;;;;;;;3.25;1.45;;;;;;;;;;5031689;28;20048;-47
2021/10/09 10:29:02;;;;;;;2.03;1.27;;;;;;;;;;5031651;28;20029;-47
2021/10/09 10:31:29;;;;;;;1.73;1.13;;;;;;;;;;5031862;28;20475;-47
2021/10/09 10:34:13;;;;;;;3.33;1.67;;;;;;;;;;5031180;28;20053;-46
2021/10/09 10:36:40;;;;;;;2.97;1.50;;;;;;;;;;5031438;28;20099;-47
2021/10/09 10:39:06;;;;;;;3.25;2.15;;;;;;;;;;5031553;28;20036;-47
2021/10/09 10:41:43;;;;;;;2.65;1.70;;;;;;;;;;5031562;28;20029;-47
2021/10/09 10:44:11;;;;;;;5.32;1.88;;;;;;;;;;5031370;28;20625;-47
2021/10/09 10:46:44;;;;;;;2.47;1.63;;;;;;;;;;5031241;28;20037;-47
2021/10/09 10:49:28;;;;;;;2.90;1.95;;;;;;;;;;5031059;28;20079;-47
2021/10/09 10:52:11;;;;;;;5.35;1.83;;;;;;;;;;5031248;28;20048;-47
2021/10/09 10:54:56;;;;;;;2.55;1.30;;;;;;;;;;5031286;28;20037;-47
2021/10/09 10:57:22;;;;;;;1.27;1.15;;;;;;;;;;5031228;28;20061;-47
2021/10/09 10:59:57;;;;;;;3.50;1.50;;;;;;;;;;5029866;28;20021;-47
2021/10/09 11:02:36;;;;;;;2.28;1.48;;;;;;;;;;5029966;28;20033;-47
2021/10/09 11:05:05;;;;;;;5.82;2.17;;;;;;;;;;5031263;28;20095;-47
2021/10/09 11:07:31;;;;;;;2.85;1.45;;;;;;;;;;5031414;28;20021;-47
2021/10/09 11:10:05;;;;;;;3.28;1.50;;;;;;;;;;5031218;28;20095;-47
2021/10/09 11:12:33;;;;;;;2.40;1.48;;;;;;;;;;5031207;28;20037;-46
2021/10/09 11:15:02;;;;;;;3.42;1.55;;;;;;;;;;5030936;28;20033;-47
2021/10/09 11:17:31;;;;;;;6.38;1.83;;;;;;;;;;5031284;28;20380;-47
2021/10/09 11:19:56;;;;;;;2.53;1.55;;;;;;;;;;5030917;28;20022;-47
2021/10/09 11:22:22;;;;;;;1.20;1.10;;;;;;;;;;5031177;28;20095;-47
2021/10/09 11:24:48;;;;;;;4.95;1.45;;;;;;;;;;5029620;28;20439;-47
2021/10/09 11:27:15;;;;;;;4.60;1.90;;;;;;;;;;5031153;28;20521;-47
2021/10/09 11:29:41;;;;;;;5.03;1.45;;;;;;;;;;5031015;28;20034;-47
2021/10/09 11:32:10;;;;;;;3.15;1.63;;;;;;;;;;5030887;28;20105;-47
2021/10/09 11:34:48;;;;;;;5.13;1.65;;;;;;;;;;5030959;28;20408;-47
2021/10/09 11:37:14;;;;;;;2.45;1.92;;;;;;;;;;5031131;28;20033;-47
2021/10/09 11:39:51;;;;;;;2.42;1.38;;;;;;;;;;5030795;28;20018;-47
2021/10/09 11:42:22;;;;;;;3.88;1.52;;;;;;;;;;5030818;28;20030;-47
2021/10/09 11:46:00;;;;;;;6.10;2.20;;;;;;;;;;5030719;28;20561;-47
2021/10/09 11:53:40;;;;;;;5.18;1.60;;;;;;;;;;5031032;28;20392;-47
2021/10/09 11:56:09;;;;;;;3.05;1.88;;;;;;;;;;5029568;28;20033;-47
2021/10/09 11:58:44;;;;;;;4.20;1.65;;;;;;;;;;5030930;28;20451;-47
2021/10/09 12:01:22;;;;;;;2.78;1.60;;;;;;;;;;5032901;28;20555;-47
2021/10/09 12:03:48;;;;;;;3.00;1.80;;;;;;;;;;5034096;28;20029;-47
2021/10/09 12:06:13;;;;;;;2.88;1.90;;;;;;;;;;5034190;28;20030;-47
2021/10/09 12:08:49;;;;;;;3.28;2.10;;;;;;;;;;5034141;28;20025;-47
2021/10/09 12:11:22;;;;;;;7.22;2.35;;;;;;;;;;5034063;28;20033;-47
2021/10/09 12:13:54;;;;;;;3.70;1.80;;;;;;;;;;5034202;28;20053;-47
2021/10/09 12:16:27;;;;;;;3.70;2.40;;;;;;;;;;5033960;28;20120;-47
2021/10/09 12:19:00;;;;;;;5.18;1.45;;;;;;;;;;5032497;28;20523;-47
2021/10/09 12:21:28;;;;;;;6.22;2.00;;;;;;;;;;5033937;28;20029;-46
2021/10/09 12:23:54;;;;;;;3.45;1.98;;;;;;;;;;5033940;28;20021;-47
2021/10/09 12:26:21;;;;;;;5.68;1.77;;;;;;;;;;5033769;28;20128;-47
2021/10/09 12:29:03;;;;;;;7.55;2.42;;;;;;;;;;5033947;28;20048;-47
2021/10/09 12:31:29;;;;;;;5.20;2.33;;;;;;;;;;5033703;28;20040;-47
2021/10/09 12:33:55;;;;;;;5.63;2.00;;;;;;;;;;5033472;28;20045;-47
2021/10/09 12:36:31;;;;;;;2.58;1.88;;;;;;;;;;5033530;28;20083;-47
2021/10/09 12:39:16;;;;;;;5.60;2.05;;;;;;;;;;5033501;28;20021;-47
2021/10/09 12:41:41;;;;;;;8.52;2.00;;;;;;;;;;5033494;28;20517;-47
2021/10/09 12:44:07;;;;;;;4.15;2.30;;;;;;;;;;5032162;28;20017;-47
2021/10/09 12:46:33;;;;;;;3.35;2.25;;;;;;;;;;5033147;28;20052;-47
2021/10/09 12:48:58;;;;;;;6.00;1.75;;;;;;;;;;5032010;28;20048;-47
2021/10/09 12:51:23;;;;;;;6.15;2.50;;;;;;;;;;5033277;28;20037;-46
2021/10/09 12:53:52;;;;;;;5.35;2.28;;;;;;;;;;5033496;28;20017;-47
2021/10/09 12:56:18;;;;;;;11.23;2.63;;;;;;;;;;5032015;28;20025;-47
2021/10/09 12:58:43;;;;;;;6.63;2.55;;;;;;;;;;5033307;28;20021;-47
2021/10/09 13:01:08;;;;;;;6.30;2.10;;;;;;;;;;5031935;28;20029;-47
2021/10/09 13:03:34;;;;;;;4.93;2.15;;;;;;;;;;5033400;28;20108;-48
2021/10/09 13:05:59;;;;;;;5.43;2.58;;;;;;;;;;5033004;28;20057;-47
2021/10/09 13:08:25;;;;;;;5.30;2.42;;;;;;;;;;5031881;28;20013;-47
2021/10/09 13:10:51;;;;;;;5.72;2.55;;;;;;;;;;5032610;28;20033;-48
2021/10/09 13:13:16;;;;;;;6.68;2.30;;;;;;;;;;5032967;28;20068;-47
2021/10/09 13:15:42;;;;;;;3.17;2.20;;;;;;;;;;5032812;28;20040;-47
2021/10/09 13:18:07;;;;;;;3.78;2.47;;;;;;;;;;5032807;28;20013;-47
2021/10/09 13:20:36;;;;;;;5.85;2.25;;;;;;;;;;5032908;28;20546;-47
2021/10/09 13:23:03;;;;;;;4.82;3.33;;;;;;;;;;5032603;28;20472;-47
2021/10/09 13:25:29;;;;;;;6.80;2.85;;;;;;;;;;5032616;28;20110;-47
2021/10/09 13:27:55;;;;;;;9.10;2.53;;;;;;;;;;5032548;28;20529;-47
2021/10/09 13:30:20;;;;;;;4.30;2.42;;;;;;;;;;5031398;28;20121;-47
2021/10/09 13:32:45;;;;;;;7.88;2.55;;;;;;;;;;5032768;28;20014;-47
2021/10/09 13:35:11;;;;;;;8.70;3.10;;;;;;;;;;5032293;28;20573;-47
2021/10/09 13:37:46;;;;;;;10.23;3.22;;;;;;;;;;5032537;28;20029;-47
2021/10/09 13:40:11;;;;;;;5.00;2.70;;;;;;;;;;5032438;28;20498;-48
2021/10/09 13:42:37;;;;;;;7.43;2.70;;;;;;;;;;5032639;28;20013;-47
2021/10/09 13:45:02;;;;;;;6.72;2.88;;;;;;;;;;5032517;28;20512;-48
2021/10/09 13:47:28;;;;;;;8.90;3.20;;;;;;;;;;5032225;28;20021;-47
2021/10/09 13:49:53;;;;;;;5.38;2.78;;;;;;;;;;5032433;28;20132;-47
2021/10/09 13:52:19;;;;;;;6.35;3.10;;;;;;;;;;5032445;28;20467;-51
2021/10/09 13:54:44;;;;;;;7.53;2.58;;;;;;;;;;5032278;28;20025;-48
2021/10/09 13:57:10;;;;;;;7.22;3.15;;;;;;;;;;5032375;28;20502;-47
2021/10/09 13:59:37;;;;;;;7.13;2.50;;;;;;;;;;5032107;28;20505;-47
2021/10/09 14:02:03;;;;;;;2.90;2.33;;;;;;;;;;5032258;28;20108;-47
2021/10/09 14:04:28;;;;;;;2.40;2.20;;;;;;;;;;5031877;28;20037;-47
2021/10/09 14:06:54;;;;;;;8.18;3.28;;;;;;;;;;5031991;28;20042;-48
2021/10/09 14:09:19;;;;;;;5.68;2.70;;;;;;;;;;5031864;28;20061;-47
2021/10/09 14:11:44;;;;;;;6.75;2.55;;;;;;;;;;5031759;28;20067;-47
2021/10/09 14:14:10;;;;;;;9.02;2.92;;;;;;;;;;5031861;28;20041;-48
2021/10/09 14:16:35;;;;;;;5.32;2.45;;;;;;;;;;5031721;28;20032;-47
2021/10/09 14:19:01;;;;;;;6.25;2.58;;;;;;;;;;5030328;28;20037;-47
2021/10/09 14:21:26;;;;;;;7.18;3.03;;;;;;;;;;5031742;28;20032;-47
2021/10/09 14:23:52;;;;;;;4.32;3.03;;;;;;;;;;5030682;28;20438;-47
2021/10/09 14:26:17;;;;;;;3.38;2.33;;;;;;;;;;5031608;28;20047;-47
2021/10/09 14:28:43;;;;;;;9.63;2.85;;;;;;;;;;5031479;28;20029;-47
2021/10/09 14:31:08;;;;;;;6.68;2.90;;;;;;;;;;5031529;28;20029;-47
2021/10/09 14:33:34;;;;;;;3.28;2.38;;;;;;;;;;5031394;28;20077;-47
2021/10/09 14:36:03;;;;;;;5.45;3.45;;;;;;;;;;5031414;28;20030;-47
2021/10/09 14:38:28;;;;;;;4.40;2.83;;;;;;;;;;5030096;28;20030;-47
2021/10/09 14:40:54;;;;;;;17.40;3.45;;;;;;;;;;5031445;28;20071;-47
2021/10/09 14:43:19;;;;;;;6.55;3.38;;;;;;;;;;5031364;28;20079;-47
2021/10/09 14:45:45;;;;;;;7.32;3.47;;;;;;;;;;5031590;28;20440;-47
2021/10/09 14:48:17;;;;;;;5.00;3.33;;;;;;;;;;5031551;28;20108;-47
2021/10/09 15:18:22;;;;;;;4.20;2.35;;;;;;;;;;5029870;28;20084;-48
2021/10/09 15:20:29;;;;;;;4.07;2.35;;;;;;;;;;5020421;28;20107;-47
2021/10/09 15:22:54;;;;;;;9.30;2.72;;;;;;;;;;5029843;28;20025;-47
2021/10/09 15:25:20;;;;;;;7.15;2.55;;;;;;;;;;5031277;28;20073;-47
2021/10/09 15:27:45;;;;;;;3.95;2.90;;;;;;;;;;5030907;28;20028;-47
2021/10/09 15:30:11;;;;;;;18.63;2.88;;;;;;;;;;5030058;28;20124;-47
2021/10/09 15:32:38;;;;;;;7.90;3.05;;;;;;;;;;5031044;28;20388;-47
2021/10/09 15:35:06;;;;;;;6.82;2.72;;;;;;;;;;5032965;28;20480;-47
2021/10/09 15:37:31;;;;;;;6.90;2.45;;;;;;;;;;5034689;28;20026;-47
2021/10/09 15:39:57;;;;;;;8.85;3.88;;;;;;;;;;5034611;28;20030;-48
2021/10/09 15:42:22;;;;;;;3.83;2.45;;;;;;;;;;5034582;28;20025;-47
2021/10/09 15:44:48;;;;;;;5.32;2.60;;;;;;;;;;5034466;28;20049;-48
2021/10/09 15:47:13;;;;;;;6.00;3.13;;;;;;;;;;5034561;28;20032;-47
2021/10/09 15:49:39;;;;;;;8.18;2.42;;;;;;;;;;5034746;28;20033;-48
2021/10/09 15:52:04;;;;;;;9.40;3.85;;;;;;;;;;5034465;28;20487;-47
2021/10/09 15:54:30;;;;;;;11.27;2.50;;;;;;;;;;5034373;28;20104;-48
2021/10/09 15:56:55;;;;;;;8.13;2.90;;;;;;;;;;5033024;28;20032;-47
2021/10/09 15:59:21;;;;;;;5.40;3.00;;;;;;;;;;5034310;28;20518;-47
2021/10/09 16:01:46;;;;;;;7.45;2.80;;;;;;;;;;5034183;28;20013;-48
2021/10/09 16:04:12;;;;;;;5.22;3.53;;;;;;;;;;5034263;28;20064;-47
2021/10/09 16:06:38;;;;;;;6.55;2.55;;;;;;;;;;5034053;28;20119;-47
2021/10/09 16:09:04;;;;;;;5.38;3.00;;;;;;;;;;5033869;28;20026;-47
2021/10/09 16:11:30;;;;;;;5.20;2.30;;;;;;;;;;5034320;28;20037;-47
2021/10/09 16:13:58;;;;;;;4.22;2.17;;;;;;;;;;5033973;28;20032;-47
2021/10/09 16:16:23;;;;;;;7.63;2.45;;;;;;;;;;5034039;28;20018;-47
2021/10/09 16:18:49;;;;;;;3.60;2.03;;;;;;;;;;5033966;28;20033;-48
2021/10/09 16:21:14;;;;;;;5.03;3.35;;;;;;;;;;5034215;28;20031;-48
2021/10/09 16:23:39;;;;;;;8.38;3.53;;;;;;;;;;5033882;28;20033;-47
2021/10/09 16:26:05;;;;;;;5.25;2.85;;;;;;;;;;5033689;28;20025;-47
2021/10/09 16:28:33;;;;;;;4.50;3.17;;;;;;;;;;5032533;28;20125;-47
2021/10/09 16:31:02;;;;;;;3.88;3.22;;;;;;;;;;5033685;28;20032;-47
2021/10/09 16:33:28;;;;;;;9.23;2.97;;;;;;;;;;5033521;28;20061;-47
2021/10/09 16:35:54;;;;;;;6.57;3.50;;;;;;;;;;5033712;28;20104;-47
2021/10/09 16:38:21;;;;;;;7.20;3.42;;;;;;;;;;5033515;28;20032;-47
2021/10/09 16:40:46;;;;;;;7.78;2.55;;;;;;;;;;5033822;28;20056;-47
2021/10/09 16:43:12;;;;;;;6.30;3.33;;;;;;;;;;5033587;28;20022;-47
2021/10/09 16:45:38;;;;;;;8.52;3.83;;;;;;;;;;5032846;28;20515;-47
2021/10/09 16:48:04;;;;;;;4.28;3.33;;;;;;;;;;5033357;28;20061;-47
2021/10/09 16:50:30;;;;;;;8.05;3.25;;;;;;;;;;5033706;28;20111;-48
2021/10/09 16:52:58;;;;;;;7.28;3.10;;;;;;;;;;5033242;28;20377;-47
2021/10/09 16:55:25;;;;;;;7.85;2.92;;;;;;;;;;5033626;28;20040;-47
2021/10/09 16:57:50;;;;;;;6.30;3.15;;;;;;;;;;5033107;28;20160;-47
2021/10/09 17:00:16;;;;;;;8.25;3.80;;;;;;;;;;5033227;28;20104;-47
2021/10/09 17:02:41;;;;;;;6.93;2.63;;;;;;;;;;5033100;28;20048;-47
2021/10/09 17:05:07;;;;;;;12.23;3.53;;;;;;;;;;5033289;28;20043;-47
2021/10/09 17:07:33;;;;;;;10.20;3.10;;;;;;;;;;5033267;28;20056;-47
2021/10/09 17:09:58;;;;;;;5.47;3.20;;;;;;;;;;5033001;28;20468;-47
2021/10/09 17:12:24;;;;;;;4.00;2.55;;;;;;;;;;5032980;28;20030;-47
2021/10/09 17:14:50;;;;;;;4.53;2.88;;;;;;;;;;5032882;28;20021;-47
2021/10/09 17:17:18;;;;;;;5.07;2.78;;;;;;;;;;5032904;28;20029;-47